createdAt,value
2018-11-23T00:00:30.984Z,19.02
2018-11-23T00:03:18.643Z,17.52
2018-11-23T00:06:06.298Z,20.95
2018-11-23T00:08:53.965Z,18.82
2018-11-23T00:11:41.804Z,17.52
2018-11-23T00:14:29.471Z,19.65
2018-11-23T00:17:17.120Z,18.12
2018-11-23T00:20:05.419Z,20.00
2018-11-23T00:22:53.028Z,18.32
2018-11-23T00:25:40.873Z,19.32
2018-11-23T00:28:28.477Z,18.77
2018-11-23T00:31:16.301Z,18.95
2018-11-23T00:33:56.945Z,19.45
2018-11-23T00:36:37.576Z,19.90
2018-11-23T00:39:18.458Z,19.52
2018-11-23T00:41:58.650Z,17.92
2018-11-23T00:44:39.616Z,19.80
2018-11-23T00:47:20.748Z,18.75
2018-11-23T00:50:01.244Z,18.75
2018-11-23T00:52:43.115Z,19.27
2018-11-23T00:55:24.024Z,19.45
2018-11-23T00:58:04.533Z,19.20
2018-11-23T01:00:45.342Z,19.40
2018-11-23T01:03:25.945Z,20.05
2018-11-23T01:06:06.567Z,19.55
2018-11-23T01:08:46.995Z,18.23
2018-11-23T01:11:27.317Z,20.12
2018-11-23T01:14:08.035Z,18.52
2018-11-23T01:16:49.328Z,17.50
2018-11-23T01:19:30.037Z,19.30
2018-11-23T01:22:10.655Z,20.10
2018-11-23T01:24:49.388Z,18.32
2018-11-23T01:27:37.021Z,19.42
2018-11-23T01:30:25.972Z,20.65
2018-11-23T01:33:13.614Z,17.85
2018-11-23T01:36:01.504Z,17.50
2018-11-23T01:38:49.454Z,18.62
2018-11-23T01:41:37.095Z,17.40
2018-11-23T01:44:24.707Z,17.23
2018-11-23T01:46:52.960Z,17.90
2018-11-23T01:49:40.582Z,18.40
2018-11-23T01:52:28.230Z,16.25
2018-11-23T01:55:16.732Z,17.10
2018-11-23T01:58:04.379Z,18.82
2018-11-23T02:00:51.995Z,16.15
2018-11-23T02:03:39.626Z,16.32
2018-11-23T02:06:27.268Z,15.98
2018-11-23T02:09:14.910Z,16.17
2018-11-23T02:12:02.532Z,16.42
2018-11-23T02:14:50.175Z,15.55
2018-11-23T02:17:37.795Z,18.27
2018-11-23T02:20:25.736Z,17.67
2018-11-23T02:23:13.384Z,18.80
2018-11-23T02:26:01.010Z,17.50
2018-11-23T02:28:48.626Z,18.35
2018-11-23T02:31:37.888Z,17.37
2018-11-23T02:34:25.622Z,16.02
2018-11-23T02:37:13.253Z,17.37
2018-11-23T02:40:00.882Z,16.07
2018-11-23T02:42:48.535Z,15.98
2018-11-23T02:45:36.169Z,17.62
2018-11-23T02:48:23.804Z,15.80
2018-11-23T02:51:11.431Z,18.87
2018-11-23T02:53:59.077Z,15.65
2018-11-23T02:56:47.284Z,17.35
2018-11-23T02:59:34.928Z,18.30
2018-11-23T03:02:22.569Z,16.48
2018-11-23T03:05:11.213Z,17.73
2018-11-23T03:07:58.794Z,17.37
2018-11-23T03:10:46.466Z,18.32
2018-11-23T03:13:34.105Z,17.27
2018-11-23T03:16:21.723Z,18.15
2018-11-23T03:19:09.353Z,17.35
2018-11-23T03:21:56.973Z,15.95
2018-11-23T03:24:44.706Z,14.78
2018-11-23T03:27:32.329Z,14.90
2018-11-23T03:30:21.433Z,17.02
2018-11-23T03:33:09.055Z,15.03
2018-11-23T03:35:56.689Z,15.90
2018-11-23T03:38:44.323Z,15.28
2018-11-23T03:41:31.947Z,16.62
2018-11-23T03:44:19.590Z,14.93
2018-11-23T03:47:07.207Z,17.82
2018-11-23T03:49:54.902Z,16.85
2018-11-23T03:52:42.886Z,15.60
2018-11-23T03:55:30.530Z,14.10
2018-11-23T03:58:18.209Z,17.23
2018-11-23T04:01:06.039Z,16.07
2018-11-23T04:03:53.674Z,15.25
2018-11-23T04:06:41.306Z,15.45
2018-11-23T04:09:09.687Z,15.35
2018-11-23T04:11:57.309Z,16.77
2018-11-23T04:14:44.973Z,16.07
2018-11-23T04:17:32.616Z,16.65
2018-11-23T04:20:20.246Z,15.90
2018-11-23T04:23:08.161Z,17.20
2018-11-23T04:25:55.819Z,15.58
2018-11-23T04:28:43.466Z,16.15
2018-11-23T04:31:31.111Z,16.15
2018-11-23T04:34:18.751Z,15.88
2018-11-23T04:37:06.368Z,17.30
2018-11-23T04:39:53.988Z,18.50
2018-11-23T04:42:42.022Z,16.35
2018-11-23T04:45:29.626Z,16.45
2018-11-23T04:48:17.267Z,17.65
2018-11-23T04:51:05.362Z,18.90
2018-11-23T04:53:53.001Z,19.57
2018-11-23T04:56:40.632Z,19.10
2018-11-23T04:59:28.532Z,18.05
2018-11-23T05:02:16.507Z,17.98
2018-11-23T05:05:04.523Z,18.50
2018-11-23T05:07:52.196Z,18.55
2018-11-23T05:10:39.876Z,18.45
2018-11-23T05:13:27.516Z,19.02
2018-11-23T05:16:15.180Z,18.90
2018-11-23T05:19:02.780Z,21.37
2018-11-23T05:24:46.203Z,18.80
2018-11-23T05:52:36.941Z,19.35
2018-11-23T05:55:24.618Z,19.92
2018-11-23T05:58:12.469Z,18.37
2018-11-23T06:01:00.144Z,19.67
2018-11-23T06:03:47.805Z,19.27
2018-11-23T06:06:42.007Z,18.62
2018-11-23T06:09:23.173Z,16.40
2018-11-23T06:11:51.491Z,17.10
2018-11-23T06:14:39.349Z,16.65
2018-11-23T06:17:12.051Z,16.50
2018-11-23T06:22:52.426Z,16.35
2018-11-23T06:28:54.600Z,17.92
2018-11-23T06:31:42.302Z,18.02
2018-11-23T06:34:30.323Z,20.30
2018-11-23T06:37:17.994Z,16.97
2018-11-23T06:43:04.706Z,17.25
2018-11-23T06:51:43.912Z,18.40
2018-11-23T06:54:31.873Z,17.45
2018-11-23T06:57:19.993Z,17.73
2018-11-23T07:16:54.994Z,20.70
2018-11-23T07:41:54.865Z,18.42
2018-11-23T07:44:42.535Z,18.80
2018-11-23T07:47:37.949Z,20.80
2018-11-23T07:50:25.636Z,19.10
2018-11-23T07:53:13.370Z,18.82
2018-11-23T07:56:01.062Z,20.48
2018-11-23T07:58:48.705Z,19.73
2018-11-23T08:01:36.370Z,21.00
2018-11-23T08:04:24.365Z,19.98
2018-11-23T08:07:12.369Z,19.82
2018-11-23T08:23:52.945Z,22.58
2018-11-23T09:10:53.741Z,20.15
2018-11-23T09:36:27.468Z,18.55
2018-11-23T09:39:15.153Z,19.50
2018-11-23T09:42:02.845Z,19.45
2018-11-23T09:44:50.613Z,21.05
2018-11-23T09:53:29.829Z,19.85
2018-11-23T09:56:17.520Z,19.70
2018-11-23T09:59:05.174Z,19.20
2018-11-23T10:01:52.806Z,19.80
2018-11-23T10:04:40.450Z,19.60
2018-11-23T10:07:28.168Z,18.82
2018-11-23T10:10:17.031Z,18.45
2018-11-23T10:12:45.291Z,19.23
2018-11-23T10:15:33.398Z,19.15
2018-11-23T10:18:21.067Z,17.25
2018-11-23T10:21:08.745Z,18.00
2018-11-23T10:23:56.546Z,18.20
2018-11-23T10:29:40.161Z,18.23
2018-11-23T10:32:20.665Z,19.35
2018-11-23T10:35:01.732Z,16.93
2018-11-23T10:37:43.574Z,16.52
2018-11-23T10:43:23.114Z,13.90
2018-11-23T10:46:03.610Z,14.60
2018-11-23T10:51:24.938Z,13.45
2018-11-23T10:54:12.572Z,13.40
2018-11-23T10:57:00.272Z,17.73
2018-11-23T10:59:47.941Z,18.40
2018-11-23T11:17:28.832Z,22.30
2018-11-23T11:23:11.687Z,21.02
2018-11-23T11:25:59.406Z,21.30
2018-11-23T11:53:16.966Z,22.55
2018-11-23T11:56:04.936Z,18.12
2018-11-23T11:58:52.665Z,17.80
2018-11-23T12:01:40.397Z,18.90
2018-11-23T12:04:28.074Z,18.20
2018-11-23T12:07:15.839Z,17.77
2018-11-23T12:10:03.528Z,17.05
2018-11-23T12:12:32.012Z,17.60
2018-11-23T12:15:00.321Z,17.37
2018-11-23T12:17:47.982Z,16.20
2018-11-23T12:20:35.650Z,18.17
2018-11-23T12:23:23.323Z,18.95
2018-11-23T12:26:11.053Z,17.15
2018-11-23T12:28:58.668Z,16.17
2018-11-23T12:31:46.346Z,18.27
2018-11-23T12:34:33.972Z,17.52
2018-11-23T12:37:22.004Z,17.95
2018-11-23T12:39:50.577Z,17.23
2018-11-23T12:59:21.931Z,16.20
2018-11-23T14:11:24.728Z,9.90
2018-11-23T14:16:45.885Z,9.83
2018-11-23T14:22:28.995Z,10.10
2018-11-23T14:25:18.416Z,9.00
2018-11-23T14:28:06.164Z,8.60
2018-11-23T14:30:53.836Z,8.83
2018-11-23T14:33:41.498Z,8.98
2018-11-23T14:36:29.137Z,9.30
2018-11-23T15:03:53.618Z,8.95
2018-11-23T15:12:12.724Z,9.08
2018-11-23T15:15:00.400Z,8.75
2018-11-23T15:20:38.011Z,8.70
2018-11-23T15:23:25.650Z,9.35
2018-11-23T15:26:13.343Z,9.53
2018-11-23T15:29:00.996Z,9.25
2018-11-23T15:31:48.884Z,8.93
2018-11-23T15:34:36.557Z,9.63
2018-11-23T15:37:24.207Z,10.10
2018-11-23T15:40:14.600Z,9.40
2018-11-23T15:43:21.409Z,10.85
2018-11-23T15:46:09.034Z,10.58
2018-11-23T15:48:56.681Z,9.65
2018-11-23T15:51:44.311Z,9.98
2018-11-23T15:54:31.983Z,9.35
2018-11-23T15:57:19.636Z,8.98
2018-11-23T16:00:09.416Z,9.70
2018-11-23T16:02:57.055Z,8.83
2018-11-23T16:05:44.791Z,8.40
2018-11-23T16:08:32.449Z,11.10
2018-11-23T16:11:20.092Z,9.98
2018-11-23T16:22:08.864Z,9.83
2018-11-23T16:24:56.658Z,8.35
2018-11-23T16:27:46.025Z,10.55
2018-11-23T16:30:52.869Z,9.28
2018-11-23T16:33:40.530Z,10.32
2018-11-23T16:36:28.582Z,9.23
2018-11-23T16:39:16.237Z,8.80
2018-11-23T16:42:04.091Z,8.48
2018-11-23T16:44:51.775Z,8.90
2018-11-23T16:47:39.662Z,8.75
2018-11-23T16:50:27.710Z,9.05
2018-11-23T16:53:15.404Z,8.75
2018-11-23T16:56:03.067Z,8.95
2018-11-23T16:58:50.705Z,9.10
2018-11-23T17:01:40.848Z,8.48
2018-11-23T17:04:28.971Z,8.38
2018-11-23T17:07:16.659Z,7.92
2018-11-23T17:10:05.443Z,8.45
2018-11-23T17:12:53.078Z,7.85
2018-11-23T17:15:40.708Z,9.60
2018-11-23T17:18:28.378Z,8.88
2018-11-23T17:21:16.788Z,8.43
2018-11-23T17:24:04.573Z,7.60
2018-11-23T17:26:53.711Z,8.38
2018-11-23T17:29:40.671Z,8.18
2018-11-23T17:32:28.355Z,8.30
2018-11-23T17:35:16.038Z,7.92
2018-11-23T17:37:44.363Z,8.30
2018-11-23T17:40:33.828Z,10.48
2018-11-23T17:43:21.607Z,7.92
2018-11-23T17:49:05.040Z,8.68
2018-11-23T17:51:54.275Z,8.13
2018-11-23T17:54:40.707Z,8.65
2018-11-23T17:57:29.222Z,10.03
2018-11-23T18:00:20.848Z,7.75
2018-11-23T18:03:08.492Z,10.08
2018-11-23T18:05:56.317Z,8.90
2018-11-23T18:08:43.924Z,8.10
2018-11-23T18:11:31.503Z,8.30
2018-11-23T18:14:19.161Z,8.75
2018-11-23T18:17:06.778Z,9.50
2018-11-23T18:19:34.993Z,9.23
2018-11-23T18:22:23.217Z,8.83
2018-11-23T18:25:13.229Z,9.00
2018-11-23T18:28:03.822Z,9.13
2018-11-23T18:30:33.059Z,9.45
2018-11-23T18:33:20.703Z,9.25
2018-11-23T18:36:08.619Z,9.50
2018-11-23T18:38:56.594Z,10.30
2018-11-23T18:50:57.465Z,8.75
2018-11-23T18:56:44.933Z,9.20
2018-11-23T19:02:30.278Z,9.80
2018-11-23T19:05:21.353Z,8.93
2018-11-23T19:07:49.553Z,9.83
2018-11-23T19:11:16.751Z,9.10
2018-11-23T19:14:04.510Z,8.93
2018-11-23T19:16:53.542Z,9.20
2018-11-23T19:19:39.931Z,9.83
2018-11-23T19:22:27.594Z,9.00
2018-11-23T19:25:15.321Z,9.10
2018-11-23T19:30:58.899Z,9.53
2018-11-23T19:33:27.243Z,11.38
2018-11-23T19:36:14.920Z,10.48
2018-11-23T19:39:20.310Z,10.05
2018-11-23T19:42:08.055Z,9.68
2018-11-23T19:44:55.752Z,9.43
2018-11-23T19:47:43.464Z,10.70
2018-11-23T19:50:31.193Z,9.58
2018-11-23T19:53:21.059Z,9.43
2018-11-23T19:56:28.142Z,9.53
2018-11-23T19:59:19.954Z,10.93
2018-11-23T20:05:22.918Z,11.55
2018-11-23T20:08:10.555Z,10.00
2018-11-23T20:10:58.266Z,11.80
2018-11-23T20:13:45.894Z,10.78
2018-11-23T20:16:36.796Z,10.10
2018-11-23T20:19:24.428Z,11.20
2018-11-23T20:22:12.506Z,10.45
2018-11-23T20:25:00.135Z,11.10
2018-11-23T20:28:07.197Z,10.95
2018-11-23T20:30:42.327Z,10.35
2018-11-23T20:33:17.153Z,10.13
2018-11-23T20:35:57.782Z,11.22
2018-11-23T20:38:38.878Z,10.60
2018-11-23T20:41:19.594Z,10.72
2018-11-23T20:44:00.123Z,11.10
2018-11-23T20:46:40.482Z,10.63
2018-11-23T20:49:21.546Z,11.90
2018-11-23T20:52:02.598Z,11.63
2018-11-23T20:54:30.951Z,10.45
2018-11-23T20:57:20.382Z,11.05
2018-11-23T21:00:09.449Z,11.22
2018-11-23T21:02:57.121Z,12.07
2018-11-23T21:05:44.752Z,12.53
2018-11-23T21:08:32.700Z,13.38
2018-11-23T21:11:20.362Z,12.30
2018-11-23T21:14:09.904Z,11.70
2018-11-23T21:22:58.065Z,11.85
2018-11-23T21:25:45.695Z,13.60
2018-11-23T21:28:33.336Z,14.00
2018-11-23T21:31:21.027Z,12.82
2018-11-23T21:34:08.925Z,16.27
2018-11-23T21:36:56.772Z,13.10
2018-11-23T21:39:44.666Z,14.70
2018-11-23T21:42:32.354Z,14.33
2018-11-23T21:45:19.991Z,13.25
2018-11-23T21:48:07.960Z,12.95
2018-11-23T21:50:55.614Z,14.70
2018-11-23T21:53:43.276Z,15.48
2018-11-23T21:56:30.960Z,15.93
2018-11-23T21:59:18.648Z,15.60
2018-11-23T22:02:07.153Z,16.35
2018-11-23T22:04:54.662Z,15.40
2018-11-23T22:07:42.405Z,14.70
2018-11-23T22:10:29.984Z,15.45
2018-11-23T22:13:17.675Z,15.20
2018-11-23T22:16:05.463Z,15.08
2018-11-23T22:18:53.182Z,16.75
2018-11-23T22:21:40.822Z,14.75
2018-11-23T22:24:28.496Z,14.83
2018-11-23T22:27:16.272Z,15.15
2018-11-23T22:30:05.370Z,16.45
2018-11-23T22:32:53.040Z,14.73
2018-11-23T22:35:41.600Z,16.57
2018-11-23T22:38:28.442Z,15.38
2018-11-23T22:41:16.426Z,15.75
2018-11-23T22:44:04.132Z,16.40
2018-11-23T22:46:51.806Z,16.40
2018-11-23T22:49:39.489Z,14.68
2018-11-23T22:52:27.203Z,14.75
2018-11-23T22:55:15.281Z,13.38
2018-11-23T22:58:03.275Z,14.68
2018-11-23T23:01:02.126Z,15.65
2018-11-23T23:03:30.602Z,14.30
2018-11-23T23:06:18.453Z,15.40
2018-11-23T23:09:09.480Z,14.28
2018-11-23T23:11:58.038Z,15.18
2018-11-23T23:14:45.696Z,15.10
2018-11-23T23:17:33.416Z,14.98
2018-11-23T23:20:21.908Z,14.90
2018-11-23T23:23:09.540Z,17.50
2018-11-23T23:25:57.302Z,15.20
2018-11-23T23:28:45.040Z,15.83
2018-11-23T23:31:32.818Z,15.30
2018-11-23T23:34:01.235Z,15.93
2018-11-23T23:36:48.903Z,15.23
2018-11-23T23:39:36.575Z,15.38
2018-11-23T23:42:24.229Z,14.00
2018-11-23T23:45:12.401Z,15.15
2018-11-23T23:48:00.035Z,15.40
2018-11-23T23:50:48.009Z,15.08
2018-11-23T23:53:35.744Z,15.05
2018-11-23T23:56:23.607Z,15.72
2018-11-23T23:59:11.340Z,15.65
